Time;durP1;ratioP1;P1;durP2;ratioP2;P2;SDS_P1;SDS_P2;PMS_P1;PMS_P2;Temp;Humidity;BMP_temperature;BMP_pressure;BME280_temperature;BME280_humidity;BME280_pressure;Samples;Min_cycle;Max_cycle;Signal;HPM_P1;HPM_P2
2021/07/21 00:00:27;;;;;;;10.40;7.00;;;;;;;16.69;73.67;97124.64;130588;1085;61440;-88
2021/07/21 00:04:02;;;;;;;10.03;6.27;;;;;;;16.72;72.87;97123.69;130539;1085;61197;-90
2021/07/21 00:14:45;;;;;;;8.53;5.80;;;;;;;16.55;72.95;97122.67;130659;1085;61101;-90
2021/07/21 00:18:47;;;;;;;;;;;;;;;;;;;;;
2021/07/21 00:22:14;;;;;;;8.33;5.97;;;;;;;16.47;73.05;97113.91;130667;1085;61126;-91
2021/07/21 00:25:41;;;;;;;9.17;5.73;;;;;;;16.44;73.00;97109.30;130608;1085;61143;-91
2021/07/21 00:29:31;;;;;;;9.97;6.13;;;;;;;16.48;72.63;97109.86;130636;1082;61774;-90
2021/07/21 00:35:26;;;;;;;8.83;5.80;;;;;;;16.38;72.98;97110.50;130753;1082;61207;-90
2021/07/21 00:38:57;;;;;;;13.17;6.40;;;;;;;16.34;72.98;97127.47;130713;1082;61089;-90
2021/07/21 00:42:25;;;;;;;10.03;5.95;;;;;;;16.30;73.04;97122.06;130732;1082;61512;-90
2021/07/21 00:46:06;;;;;;;10.77;6.17;;;;;;;16.28;73.07;97118.22;130706;1082;61892;-89
2021/07/21 00:49:33;;;;;;;12.27;6.47;;;;;;;16.25;73.10;97117.17;130607;1082;61131;-89
2021/07/21 00:53:00;;;;;;;9.80;5.90;;;;;;;16.23;72.95;97135.67;130727;1082;61253;-89
2021/07/21 00:56:31;;;;;;;12.27;6.87;;;;;;;16.18;73.38;97131.55;130738;1082;61051;-89
2021/07/21 01:00:01;;;;;;;8.83;5.77;;;;;;;16.28;73.03;97140.57;130720;1082;61036;-90
2021/07/21 01:03:38;;;;;;;9.90;6.67;;;;;;;16.35;72.48;97140.19;130723;1082;61477;-90
2021/07/21 01:07:06;;;;;;;17.13;6.50;;;;;;;16.30;72.35;97140.85;130628;1082;61145;-90
2021/07/21 01:10:35;;;;;;;11.30;6.60;;;;;;;16.28;72.56;97151.75;130759;1082;61055;-91
2021/07/21 01:14:09;;;;;;;10.37;6.37;;;;;;;16.19;72.91;97154.67;130730;1082;61039;-90
2021/07/21 01:17:36;;;;;;;11.57;6.77;;;;;;;16.19;72.33;97151.88;130753;1082;61079;-90
2021/07/21 01:21:12;;;;;;;10.03;5.90;;;;;;;16.09;73.01;97156.02;130743;1080;61885;-91
2021/07/21 01:24:56;;;;;;;10.10;6.23;;;;;;;16.06;73.06;97154.20;130114;1085;61154;-90
2021/07/21 01:28:26;;;;;;;12.80;6.43;;;;;;;15.98;73.57;97151.81;129322;1092;61237;-90
2021/07/21 01:31:56;;;;;;;11.23;6.57;;;;;;;15.98;73.32;97162.98;129333;1092;61167;-90
2021/07/21 01:35:38;;;;;;;;;;;;;;;;;;;;;
2021/07/21 01:39:03;;;;;;;11.53;6.40;;;;;;;16.03;72.94;97146.80;129271;1092;62042;-91
2021/07/21 01:42:25;;;;;;;9.83;6.15;;;;;;;16.13;72.63;97151.00;129311;1092;61136;-90
2021/07/21 01:45:58;;;;;;;10.30;6.77;;;;;;;15.97;73.26;97147.45;129351;1092;61179;-91
2021/07/21 01:49:23;;;;;;;13.83;5.93;;;;;;;16.05;72.81;97145.05;129328;1092;61122;-92
2021/07/21 01:52:51;;;;;;;9.43;6.10;;;;;;;15.98;73.08;97146.23;129324;1090;61189;-91
2021/07/21 01:56:18;;;;;;;9.40;5.87;;;;;;;15.87;73.40;97143.25;129341;1092;62510;-90
2021/07/21 01:59:56;;;;;;;;;;;;;;;;;;;;;
2021/07/21 02:03:16;;;;;;;9.20;5.97;;;;;;;15.74;74.21;97148.34;129828;1088;61126;-90
2021/07/21 02:06:44;;;;;;;10.47;6.70;;;;;;;15.78;74.05;97146.13;130722;1085;61184;-90
2021/07/21 02:10:13;;;;;;;13.33;6.60;;;;;;;15.77;74.67;97150.17;130776;1084;61045;-89
2021/07/21 02:13:46;;;;;;;11.07;7.23;;;;;;;15.81;74.26;97142.39;130146;1085;61823;-90
2021/07/21 02:17:39;;;;;;;11.10;6.70;;;;;;;15.75;74.34;97144.30;130113;1085;61276;-89
2021/07/21 02:21:13;;;;;;;13.03;6.63;;;;;;;15.74;74.83;97153.16;130108;1085;61544;-91
2021/07/21 15:27:16;;;;;;;6.63;4.00;;;;;;;29.72;34.28;97483.97;130711;1085;61075;-95
2021/07/21 16:45:44;;;;;;;5.50;3.90;;;;;;;22.91;49.61;97536.15;128765;1085;62633;-90
2021/07/21 16:57:43;;;;;;;;;;;;;;;;;;;;;
2021/07/21 17:00:44;;;;;;;;;;;;;;;21.48;54.21;97528.25;127670;1086;62646;-90
2021/07/21 17:07:59;;;;;;;7.60;4.20;;;;;;;21.29;55.14;97539.25;127849;1088;62626;-88
2021/07/21 17:11:39;;;;;;;11.33;4.40;;;;;;;21.21;55.78;97549.45;127836;1089;62721;-88
2021/07/21 17:15:07;;;;;;;7.83;4.23;;;;;;;21.18;55.48;97561.71;128151;1086;62654;-89
2021/07/21 17:18:50;;;;;;;6.97;4.50;;;;;;;21.16;56.06;97558.64;128016;1089;62620;-89
2021/07/21 17:22:24;;;;;;;6.77;4.47;;;;;;;21.12;56.22;97561.71;127974;1089;62706;-90
2021/07/21 17:25:54;;;;;;;9.70;4.60;;;;;;;21.00;56.51;97560.14;128394;1089;61660;-89
2021/07/21 17:29:30;;;;;;;6.73;4.23;;;;;;;20.90;56.75;97553.22;129203;1089;62718;-89
2021/07/21 17:33:29;;;;;;;;;;;;;;;;;;;;;
2021/07/21 17:44:14;;;;;;;7.23;4.47;;;;;;;20.37;58.85;97563.20;128887;1084;62587;-89
2021/07/21 17:51:38;;;;;;;6.80;4.47;;;;;;;20.16;59.28;97568.97;128890;1084;62565;-90
2021/07/21 17:55:34;;;;;;;8.63;4.67;;;;;;;20.02;59.32;97564.27;127946;1089;62608;-91
2021/07/21 17:59:13;;;;;;;6.03;4.40;;;;;;;19.92;60.24;97572.11;127967;1088;62689;-90
2021/07/21 18:06:32;;;;;;;6.77;4.20;;;;;;;19.76;61.00;97578.40;127932;1089;62690;-90
2021/07/21 18:10:12;;;;;;;8.63;4.53;;;;;;;19.74;61.31;97572.48;128043;1088;62712;-92
2021/07/21 18:13:51;;;;;;;7.30;4.40;;;;;;;19.76;61.04;97577.63;127975;1089;62553;-89
2021/07/21 18:17:18;;;;;;;9.53;5.00;;;;;;;19.72;61.02;97582.68;128204;1088;62633;-91
2021/07/21 18:20:47;;;;;;;7.67;4.97;;;;;;;19.67;61.01;97578.56;127904;1089;62582;-90
2021/07/21 18:24:19;;;;;;;9.57;4.60;;;;;;;19.67;61.39;97581.38;127946;1092;62658;-90
2021/07/21 18:28:04;;;;;;;6.60;4.07;;;;;;;19.64;61.31;97581.61;128073;1089;62725;-90
2021/07/21 18:31:35;;;;;;;9.53;4.30;;;;;;;19.54;61.65;97578.19;128302;1085;62575;-90
2021/07/21 18:35:04;;;;;;;7.90;4.30;;;;;;;19.51;61.52;97591.16;128815;1085;62598;-90
2021/07/21 18:38:52;;;;;;;9.30;5.10;;;;;;;19.48;61.73;97589.35;128876;1085;62589;-90
2021/07/21 18:42:28;;;;;;;9.97;4.60;;;;;;;19.49;61.52;97604.94;128750;1085;62701;-90
2021/07/21 18:46:00;;;;;;;8.57;4.57;;;;;;;19.44;61.50;97602.85;128632;1085;62734;-92
2021/07/21 18:49:58;;;;;;;;;;;;;;;;;;;;;
2021/07/21 18:53:13;;;;;;;10.70;4.30;;;;;;;19.44;60.60;97602.85;128445;1085;62638;-90
2021/07/21 18:56:43;;;;;;;10.73;4.40;;;;;;;19.44;60.68;97602.85;128480;1085;62710;-89
2021/07/21 19:00:12;;;;;;;7.43;4.27;;;;;;;19.52;59.66;97603.94;128447;1085;62569;-89
2021/07/21 19:16:41;;;;;;;6.33;4.27;;;;;;;20.17;59.72;97623.15;127099;1092;62623;-66
2021/07/21 19:19:08;;;;;;;7.67;4.50;;;;;;;20.05;59.56;97621.52;126948;1092;62666;-64
2021/07/21 19:21:36;;;;;;;7.13;4.57;;;;;;;19.88;59.82;97624.97;126894;1092;62622;-63
2021/07/21 19:24:04;;;;;;;6.87;4.40;;;;;;;19.74;59.53;97641.95;127192;1092;62603;-65
2021/07/21 19:26:31;;;;;;;7.67;4.10;;;;;;;19.67;59.85;97639.59;126840;1092;62861;-62
2021/07/21 19:28:59;;;;;;;8.00;4.77;;;;;;;19.58;60.54;97646.94;126906;1092;62612;-63
2021/07/21 19:31:26;;;;;;;9.50;4.73;;;;;;;19.45;60.54;97643.70;126980;1092;63000;-64
2021/07/21 19:33:54;;;;;;;7.47;4.50;;;;;;;19.36;60.90;97643.85;126788;1092;62572;-64
2021/07/21 19:36:21;;;;;;;9.47;5.03;;;;;;;19.26;60.85;97645.30;126873;1092;62639;-63
2021/07/21 19:38:48;;;;;;;9.70;4.55;;;;;;;19.19;61.29;97640.09;126812;1092;62695;-62
2021/07/21 19:41:16;;;;;;;9.47;4.67;;;;;;;19.12;61.09;97644.11;126866;1092;63051;-62
2021/07/21 19:43:43;;;;;;;7.15;4.35;;;;;;;19.04;61.38;97647.85;126853;1092;62650;-62
2021/07/21 19:46:11;;;;;;;7.37;4.77;;;;;;;18.94;61.52;97656.40;126882;1095;63038;-64
2021/07/21 19:48:39;;;;;;;7.67;4.67;;;;;;;18.86;61.49;97652.48;126974;1092;62633;-63
2021/07/21 19:51:06;;;;;;;7.30;4.43;;;;;;;18.77;61.95;97658.22;126952;1092;62764;-61
2021/07/21 19:53:33;;;;;;;6.60;4.07;;;;;;;18.68;61.98;97655.56;126972;1092;62757;-64
2021/07/21 19:56:01;;;;;;;8.33;4.83;;;;;;;18.61;62.53;97658.73;126952;1092;62618;-62
2021/07/21 19:58:30;;;;;;;7.53;4.67;;;;;;;18.50;62.13;97655.79;126925;1092;62569;-62
2021/07/21 20:00:57;;;;;;;6.30;4.17;;;;;;;18.38;62.50;97655.63;126980;1092;62639;-61
2021/07/21 20:03:25;;;;;;;9.00;4.83;;;;;;;18.29;62.86;97658.53;126886;1092;62609;-62
2021/07/21 20:05:52;;;;;;;8.70;4.70;;;;;;;18.22;63.02;97658.94;126991;1092;62773;-61
2021/07/21 20:08:19;;;;;;;8.40;4.40;;;;;;;18.15;63.02;97662.16;126961;1092;62646;-61
2021/07/21 20:10:46;;;;;;;8.00;4.63;;;;;;;18.09;63.53;97650.07;126914;1092;62616;-60
2021/07/21 20:13:14;;;;;;;7.50;4.40;;;;;;;18.04;63.45;97659.94;126934;1092;62619;-64
2021/07/21 20:15:41;;;;;;;8.40;4.23;;;;;;;18.01;63.44;97654.53;126941;1092;62780;-62
2021/07/21 20:18:09;;;;;;;5.85;4.50;;;;;;;17.97;64.39;97656.77;126911;1092;62760;-63
2021/07/21 20:20:36;;;;;;;7.60;4.53;;;;;;;17.96;64.31;97652.42;126907;1092;62618;-62
2021/07/21 20:25:49;;;;;;;8.10;5.10;;;;;;;17.95;64.91;97650.86;126941;1092;62569;-62
2021/07/21 20:28:17;;;;;;;9.23;5.03;;;;;;;17.93;65.83;97648.54;126883;1091;62783;-62
2021/07/21 20:30:44;;;;;;;7.23;4.87;;;;;;;17.95;65.25;97650.86;126881;1092;63003;-62
2021/07/21 20:33:12;;;;;;;7.53;4.93;;;;;;;17.97;65.24;97648.37;126890;1092;62630;-63
2021/07/21 20:35:41;;;;;;;7.33;4.87;;;;;;;17.98;65.06;97635.91;126993;1092;62658;-63
2021/07/21 20:38:08;;;;;;;8.63;4.80;;;;;;;17.97;65.42;97637.93;126986;1092;62620;-64
2021/07/21 20:40:38;;;;;;;7.23;4.70;;;;;;;17.98;65.22;97641.50;126956;1092;63022;-62
2021/07/21 20:43:06;;;;;;;9.87;4.47;;;;;;;17.98;65.79;97641.50;127000;1092;62627;-62
2021/07/21 20:45:33;;;;;;;9.13;4.97;;;;;;;17.98;65.87;97642.28;127004;1092;62581;-61
2021/07/21 20:48:01;;;;;;;9.07;5.03;;;;;;;17.99;66.10;97645.84;126985;1092;62678;-63
2021/07/21 20:50:30;;;;;;;7.13;4.87;;;;;;;17.99;66.34;97643.05;127011;1092;62578;-63
2021/07/21 20:52:57;;;;;;;7.95;4.90;;;;;;;18.02;66.33;97647.67;127044;1092;62629;-63
2021/07/21 20:55:24;;;;;;;9.00;4.97;;;;;;;18.05;66.76;97632.69;126993;1092;62623;-64
2021/07/21 20:57:51;;;;;;;6.43;4.50;;;;;;;18.08;66.56;97642.92;126954;1092;62620;-63
2021/07/21 21:00:19;;;;;;;7.03;4.63;;;;;;;18.09;67.62;97638.86;126919;1092;62585;-63
2021/07/21 21:02:46;;;;;;;7.10;4.70;;;;;;;18.11;66.83;97636.34;126909;1092;62677;-63
2021/07/21 21:05:13;;;;;;;7.23;4.40;;;;;;;18.13;67.03;97642.23;126922;1092;62738;-65
2021/07/21 21:07:41;;;;;;;7.20;4.73;;;;;;;18.14;67.71;97646.60;126945;1092;62779;-63
2021/07/21 21:10:10;;;;;;;6.30;4.37;;;;;;;18.15;66.78;97645.34;126984;1092;62594;-64
2021/07/21 21:12:37;;;;;;;8.47;4.73;;;;;;;18.17;66.95;97650.45;126921;1092;62585;-62
2021/07/21 21:15:06;;;;;;;8.17;4.70;;;;;;;18.17;66.33;97650.45;126871;1092;62620;-63
2021/07/21 21:17:33;;;;;;;6.30;4.40;;;;;;;18.19;66.91;97654.31;126908;1092;62568;-63
2021/07/21 21:20:01;;;;;;;6.90;4.70;;;;;;;18.21;67.02;97653.83;126902;1092;62772;-63
2021/07/21 21:22:28;;;;;;;8.90;4.30;;;;;;;18.23;66.91;97649.27;126917;1092;62640;-63
2021/07/21 21:24:56;;;;;;;6.90;4.60;;;;;;;18.22;67.11;97653.34;126897;1092;62637;-63
2021/07/21 21:27:23;;;;;;;7.10;4.70;;;;;;;18.19;67.76;97659.92;126920;1092;62612;-63
2021/07/21 21:29:50;;;;;;;9.00;4.63;;;;;;;18.20;67.60;97660.69;126905;1092;62639;-63
2021/07/21 21:32:17;;;;;;;6.83;4.67;;;;;;;18.19;67.36;97659.92;126942;1092;62709;-62
2021/07/21 21:34:46;;;;;;;8.87;4.57;;;;;;;18.21;67.49;97668.61;127043;1092;62566;-62
2021/07/21 21:37:13;;;;;;;8.67;4.70;;;;;;;18.22;67.34;97661.75;126921;1092;62616;-67
2021/07/21 21:39:41;;;;;;;7.87;4.73;;;;;;;18.21;67.72;97663.00;126906;1092;62625;-62
2021/07/21 21:42:09;;;;;;;7.47;4.30;;;;;;;18.22;67.38;97670.16;126922;1092;62591;-63
2021/07/21 21:44:36;;;;;;;8.90;4.43;;;;;;;18.26;67.21;97661.54;126925;1092;62767;-63
2021/07/21 21:47:04;;;;;;;7.63;4.50;;;;;;;18.25;67.58;97663.57;126983;1092;62600;-64
2021/07/21 21:49:31;;;;;;;5.83;4.07;;;;;;;18.25;68.04;97669.17;127045;1092;62610;-66
2021/07/21 21:51:59;;;;;;;6.50;4.43;;;;;;;18.22;67.75;97664.55;126899;1092;62837;-64
2021/07/21 21:54:26;;;;;;;8.90;4.87;;;;;;;18.23;67.34;97674.50;126872;1092;62629;-63
2021/07/21 21:56:53;;;;;;;6.87;4.40;;;;;;;18.24;67.67;97672.47;126935;1092;62783;-64
2021/07/21 21:59:20;;;;;;;9.00;4.40;;;;;;;18.24;67.18;97667.63;126911;1092;62617;-63
2021/07/21 22:01:48;;;;;;;9.50;4.10;;;;;;;18.25;67.54;97674.01;126955;1092;62613;-64
2021/07/21 22:04:16;;;;;;;9.10;4.40;;;;;;;18.26;67.72;97670.72;126895;1092;62626;-63
2021/07/21 22:06:43;;;;;;;8.63;3.70;;;;;;;18.25;67.41;97674.78;126881;1094;62725;-64
2021/07/21 22:09:11;;;;;;;7.00;4.10;;;;;;;18.24;67.49;97678.84;126901;1092;62712;-63
2021/07/21 22:11:39;;;;;;;9.77;3.97;;;;;;;18.27;67.67;97677.87;126901;1092;62588;-63
2021/07/21 22:14:06;;;;;;;5.93;4.23;;;;;;;18.28;67.12;97671.00;126880;1093;62622;-66
2021/07/21 22:16:33;;;;;;;8.20;4.50;;;;;;;18.27;67.32;97665.88;126889;1092;62620;-63
2021/07/21 22:19:01;;;;;;;7.00;3.97;;;;;;;18.27;67.27;97672.27;126890;1092;62645;-63
2021/07/21 22:21:29;;;;;;;6.30;4.10;;;;;;;18.30;67.27;97673.31;126902;1092;62764;-67
2021/07/21 22:23:58;;;;;;;7.10;4.13;;;;;;;18.32;67.38;97682.03;126937;1092;62569;-65
2021/07/21 22:26:25;;;;;;;7.07;4.43;;;;;;;18.31;67.16;97672.05;127013;1092;62668;-69
2021/07/21 22:28:55;;;;;;;6.33;4.03;;;;;;;18.31;67.18;97677.66;126902;1093;62626;-63
2021/07/21 22:31:24;;;;;;;9.50;4.30;;;;;;;18.31;66.95;97678.46;127034;1092;62645;-63
2021/07/21 22:33:53;;;;;;;7.93;4.40;;;;;;;18.30;66.97;97670.52;126967;1092;62754;-70
2021/07/21 22:36:22;;;;;;;5.17;4.20;;;;;;;18.31;66.79;97678.46;126956;1092;62696;-63
2021/07/21 22:38:50;;;;;;;6.93;4.73;;;;;;;18.31;66.71;97678.46;126911;1092;62617;-69
2021/07/21 22:41:17;;;;;;;6.80;4.07;;;;;;;18.32;66.76;97680.00;126984;1092;62700;-69
2021/07/21 22:43:44;;;;;;;6.80;4.17;;;;;;;18.30;67.15;97682.50;126880;1092;62692;-63
2021/07/21 22:46:13;;;;;;;5.40;3.60;;;;;;;18.29;66.47;97678.15;126931;1092;62812;-63
2021/07/21 22:48:42;;;;;;;7.07;4.20;;;;;;;18.27;66.48;97680.67;126881;1092;62602;-63
2021/07/21 22:51:10;;;;;;;6.45;3.90;;;;;;;18.25;66.16;97691.59;126936;1092;62566;-64
2021/07/21 22:53:37;;;;;;;6.57;3.77;;;;;;;18.25;66.29;97685.99;126896;1092;62658;-64
2021/07/21 22:56:10;;;;;;;5.57;4.03;;;;;;;18.23;65.99;97685.71;126917;1092;62702;-64
2021/07/21 22:58:40;;;;;;;7.13;4.23;;;;;;;18.23;66.00;97688.52;127139;1092;62569;-64
2021/07/21 23:01:32;;;;;;;4.93;3.80;;;;;;;18.23;66.02;97688.52;127072;1092;62639;-63
2021/07/21 23:04:37;;;;;;;7.43;4.23;;;;;;;18.26;65.75;97681.16;126748;1097;62581;-69
2021/07/21 23:07:41;;;;;;;12.37;3.60;;;;;;;18.28;65.86;97687.81;126546;1096;62742;-73
2021/07/21 23:10:46;;;;;;;9.17;3.80;;;;;;;18.30;65.94;97699.31;126449;1096;62740;-63
2021/07/21 23:13:51;;;;;;;6.23;4.03;;;;;;;18.31;65.66;97683.27;126421;1097;62648;-63
2021/07/21 23:16:18;;;;;;;7.13;3.87;;;;;;;18.30;65.75;97692.94;126400;1098;62681;-62
2021/07/21 23:18:45;;;;;;;6.77;4.07;;;;;;;18.29;65.72;97680.19;126472;1096;62669;-63
2021/07/21 23:21:12;;;;;;;6.43;3.60;;;;;;;18.29;65.31;97692.16;126529;1092;62630;-63
2021/07/21 23:23:40;;;;;;;4.73;3.67;;;;;;;18.27;65.37;97694.69;126887;1092;62722;-62
2021/07/21 23:26:09;;;;;;;5.27;3.63;;;;;;;18.25;65.57;97694.41;126928;1092;62720;-62
2021/07/21 23:28:36;;;;;;;7.37;3.90;;;;;;;18.24;65.21;97695.66;126915;1092;62924;-63
2021/07/21 23:31:04;;;;;;;9.50;4.30;;;;;;;18.20;65.39;97700.70;126915;1095;62640;-63
2021/07/21 23:33:31;;;;;;;9.20;4.10;;;;;;;18.14;65.36;97697.05;126909;1092;62865;-64
2021/07/21 23:35:58;;;;;;;6.53;3.70;;;;;;;18.08;65.38;97687.75;126906;1092;62792;-63
2021/07/21 23:38:26;;;;;;;8.67;4.33;;;;;;;18.02;65.46;97686.91;126865;1095;62750;-68
2021/07/21 23:40:53;;;;;;;9.23;3.90;;;;;;;18.00;65.53;97683.81;126886;1092;62673;-64
2021/07/21 23:43:20;;;;;;;5.43;3.90;;;;;;;17.99;65.44;97685.08;126973;1092;62629;-63
2021/07/21 23:45:48;;;;;;;6.63;3.80;;;;;;;17.98;65.62;97683.53;126903;1092;62617;-63
2021/07/21 23:48:15;;;;;;;5.20;3.90;;;;;;;17.98;65.33;97680.73;126850;1092;62703;-64
2021/07/21 23:50:42;;;;;;;5.40;3.60;;;;;;;17.99;65.22;97685.84;126894;1092;62687;-62
2021/07/21 23:53:09;;;;;;;6.53;3.77;;;;;;;18.02;65.75;97675.70;126911;1092;62632;-63
2021/07/21 23:55:36;;;;;;;6.27;3.60;;;;;;;18.03;66.02;97674.44;126973;1092;62895;-62
2021/07/21 23:58:04;;;;;;;6.83;3.83;;;;;;;18.04;65.46;97675.98;126918;1092;62617;-62
